Time;durP1;ratioP1;P1;durP2;ratioP2;P2;SDS_P1;SDS_P2;PMS_P1;PMS_P2;Temp;Humidity;BMP_temperature;BMP_pressure;BME280_temperature;BME280_humidity;BME280_pressure;Samples;Min_cycle;Max_cycle;Signal;HPM_P1;HPM_P2
2021/12/09 00:03:57;;;;;;;7.63;4.43;;;;;;;19.87;45.11;95324.06;10468176;28;20060;-55
2021/12/09 00:09:19;;;;;;;5.38;4.28;;;;;;;19.85;45.00;95324.41;10478719;28;20060;-55
2021/12/09 00:14:38;;;;;;;5.45;3.63;;;;;;;19.84;45.26;95322.88;10477714;28;20045;-55
2021/12/09 00:19:58;;;;;;;4.72;3.80;;;;;;;19.84;45.04;95330.97;10463708;28;20056;-55
2021/12/09 00:25:17;;;;;;;6.70;3.85;;;;;;;19.82;45.34;95341.38;10468016;28;20053;-56
2021/12/09 00:30:37;;;;;;;5.43;3.83;;;;;;;19.81;45.20;95330.91;10468639;28;20056;-55
2021/12/09 00:35:59;;;;;;;5.50;3.83;;;;;;;19.80;45.20;95329.34;10450880;28;20056;-56
2021/12/09 00:41:19;;;;;;;4.32;3.65;;;;;;;19.78;45.21;95335.13;10465020;28;20487;-56
2021/12/09 00:46:38;;;;;;;6.40;3.97;;;;;;;19.76;45.02;95332.00;10463248;28;20049;-55
2021/12/09 00:51:58;;;;;;;5.57;4.05;;;;;;;19.74;44.82;95334.28;10477237;28;20036;-55
2021/12/09 00:57:18;;;;;;;4.57;3.85;;;;;;;19.73;45.02;95344.28;10478655;28;20040;-55
2021/12/09 01:02:38;;;;;;;5.10;3.80;;;;;;;19.71;44.94;95343.88;10443538;28;20045;-56
2021/12/09 01:07:57;;;;;;;4.70;3.75;;;;;;;19.70;44.90;95352.34;10463109;28;20389;-54
2021/12/09 01:13:17;;;;;;;3.70;3.40;;;;;;;19.69;44.97;95348.06;10466367;28;20111;-55
2021/12/09 01:18:38;;;;;;;4.05;3.15;;;;;;;19.67;44.76;95350.34;10476441;28;20048;-55
2021/12/09 01:23:58;;;;;;;5.50;3.67;;;;;;;19.65;44.64;95350.69;10463108;28;20064;-55
2021/12/09 01:29:27;;;;;;;5.15;3.30;;;;;;;19.64;44.51;95346.44;10475165;28;20720;-56
2021/12/09 01:34:46;;;;;;;;;;;;;;;19.62;44.46;95342.53;10462901;28;20491;-55
2021/12/09 01:40:08;;;;;;;3.72;3.20;;;;;;;19.60;44.49;95328.59;10461782;28;19928;-55
2021/12/09 01:45:28;;;;;;;3.47;3.17;;;;;;;19.58;44.40;95342.44;10467819;28;20718;-56
2021/12/09 01:50:47;;;;;;;4.93;3.40;;;;;;;19.57;44.52;95340.91;10488617;28;20512;-56
2021/12/09 01:56:10;;;;;;;4.20;3.42;;;;;;;19.55;44.61;95343.97;10475461;28;20051;-54
2021/12/09 02:01:34;;;;;;;4.43;3.53;;;;;;;19.52;44.32;95347.41;10462223;28;20399;-55
2021/12/09 02:06:54;;;;;;;3.78;3.33;;;;;;;19.53;44.48;95361.69;10474044;28;20033;-55
2021/12/09 02:12:14;;;;;;;3.75;3.20;;;;;;;19.51;44.57;95372.06;10467198;28;20098;-55
2021/12/09 02:17:34;;;;;;;4.10;3.50;;;;;;;19.49;44.32;95380.50;10494274;28;20099;-55
2021/12/09 02:22:56;;;;;;;3.58;3.08;;;;;;;19.47;44.42;95369.28;10447075;28;20075;-55
2021/12/09 02:28:16;;;;;;;3.40;3.10;;;;;;;19.46;44.54;95365.00;10465204;28;20071;-55
2021/12/09 02:33:36;;;;;;;4.05;3.22;;;;;;;19.44;44.25;95329.47;10474468;28;20044;-55
2021/12/09 02:38:56;;;;;;;3.28;2.85;;;;;;;19.43;44.44;95351.47;10475258;28;20049;-55
2021/12/09 02:44:18;;;;;;;3.80;2.92;;;;;;;19.42;44.30;95360.69;10473009;28;20033;-54
2021/12/09 02:49:37;;;;;;;3.60;3.10;;;;;;;19.41;44.45;95354.53;10460452;28;20504;-56
2021/12/09 02:54:58;;;;;;;3.80;3.28;;;;;;;19.40;44.37;95349.47;10477866;28;20044;-56
2021/12/09 03:00:18;;;;;;;3.05;2.75;;;;;;;19.39;44.32;95389.22;10474750;28;20048;-56
2021/12/09 03:05:39;;;;;;;3.80;2.85;;;;;;;19.36;44.30;95404.19;10467918;28;20446;-55
2021/12/09 03:11:11;;;;;;;4.38;3.05;;;;;;;19.36;44.14;95387.97;10476407;28;20052;-55
2021/12/09 03:16:31;;;;;;;3.67;2.90;;;;;;;19.34;44.21;95367.88;10470039;28;20439;-56
2021/12/09 03:21:51;;;;;;;4.00;3.22;;;;;;;19.32;44.28;95372.84;10468960;28;20411;-55
2021/12/09 03:27:12;;;;;;;3.22;2.90;;;;;;;19.30;44.25;95369.72;10480675;28;20071;-56
2021/12/09 03:32:31;;;;;;;3.50;2.80;;;;;;;19.28;44.19;95410.59;10467012;28;20483;-56
2021/12/09 03:37:51;;;;;;;3.38;2.97;;;;;;;19.28;44.20;95412.50;10466867;28;20424;-55
2021/12/09 03:43:11;;;;;;;3.40;2.90;;;;;;;19.26;44.23;95434.47;10466174;28;20083;-56
2021/12/09 03:48:31;;;;;;;2.63;2.42;;;;;;;19.25;44.13;95429.41;10481316;28;20037;-56
2021/12/09 03:53:51;;;;;;;3.72;3.03;;;;;;;19.23;44.31;95435.19;10480745;28;20496;-55
2021/12/09 03:59:11;;;;;;;3.38;2.55;;;;;;;19.23;44.31;95428.97;10466903;28;20102;-56
2021/12/09 04:04:31;;;;;;;3.22;2.78;;;;;;;19.23;44.42;95423.59;10478135;28;20601;-56
2021/12/09 04:09:50;;;;;;;4.88;2.70;;;;;;;19.24;44.36;95419.75;10465035;28;20048;-55
2021/12/09 04:15:11;;;;;;;3.45;2.90;;;;;;;19.21;44.37;95412.34;10461238;28;20068;-56
2021/12/09 04:20:30;;;;;;;3.17;2.88;;;;;;;19.22;44.24;95435.53;10464187;28;20511;-56
2021/12/09 04:25:50;;;;;;;2.92;2.42;;;;;;;19.19;44.34;95422.72;10467244;28;20071;-56
2021/12/09 04:31:09;;;;;;;3.17;2.83;;;;;;;19.19;44.17;95438.94;10477358;28;20078;-56
2021/12/09 04:36:29;;;;;;;3.58;2.80;;;;;;;19.19;44.09;95420.03;10464464;28;20052;-55
2021/12/09 04:41:50;;;;;;;2.90;2.60;;;;;;;19.20;43.98;95418.91;10463242;28;20052;-55
2021/12/09 04:47:10;;;;;;;2.60;2.40;;;;;;;19.22;44.19;95430.13;10474625;28;20036;-56
2021/12/09 04:52:30;;;;;;;3.05;2.75;;;;;;;19.22;43.98;95430.91;10464929;28;20424;-56
2021/12/09 04:57:50;;;;;;;2.80;2.50;;;;;;;19.23;44.13;95426.28;10463956;28;20133;-56
2021/12/09 05:03:12;;;;;;;2.80;2.60;;;;;;;19.24;44.05;95414.34;10463996;28;20126;-55
2021/12/09 05:08:33;;;;;;;3.10;2.80;;;;;;;19.23;44.22;95418.19;10463361;28;20808;-55
2021/12/09 05:13:53;;;;;;;2.97;2.47;;;;;;;19.25;44.09;95426.72;10463515;28;20086;-56
2021/12/09 05:19:13;;;;;;;2.65;2.45;;;;;;;19.24;43.92;95408.97;10474657;28;20048;-56
2021/12/09 05:24:34;;;;;;;3.20;2.90;;;;;;;19.23;43.88;95407.38;10444955;28;20523;-55
2021/12/09 05:30:04;;;;;;;2.53;2.30;;;;;;;19.23;44.05;95402.78;10464281;28;20071;-55
2021/12/09 05:35:24;;;;;;;5.15;2.55;;;;;;;19.25;43.91;95421.31;10457585;28;20044;-55
2021/12/09 05:40:43;;;;;;;3.13;2.72;;;;;;;19.25;44.21;95432.09;10447867;28;20408;-56
2021/12/09 05:46:04;;;;;;;3.17;2.70;;;;;;;19.27;44.45;95468.44;10457795;28;20056;-55
2021/12/09 05:51:24;;;;;;;3.85;2.90;;;;;;;19.31;44.38;95471.22;10462222;28;20074;-56
2021/12/09 05:56:44;;;;;;;2.80;2.60;;;;;;;19.33;44.48;95477.03;10474765;28;20492;-56
2021/12/09 06:02:04;;;;;;;3.05;2.72;;;;;;;19.35;44.68;95472.06;10473531;28;20033;-56
2021/12/09 06:07:23;;;;;;;3.03;2.67;;;;;;;19.38;44.70;95440.88;10461719;28;20068;-55
2021/12/09 06:12:43;;;;;;;4.35;2.70;;;;;;;19.41;44.81;95449.03;10460535;28;20057;-56
2021/12/09 06:18:03;;;;;;;4.32;2.60;;;;;;;19.44;44.92;95480.72;10473708;28;20095;-56
2021/12/09 06:23:22;;;;;;;3.92;2.40;;;;;;;19.46;45.02;95470.34;10462855;28;20059;-56
2021/12/09 06:28:42;;;;;;;4.07;2.55;;;;;;;19.49;45.08;95461.53;10461131;28;21738;-55
2021/12/09 06:34:01;;;;;;;3.45;2.55;;;;;;;-146.19;100.00;65364.44;10462569;28;20067;-56
2021/12/09 06:39:20;;;;;;;5.13;2.60;;;;;;;-146.19;100.00;65364.44;10474986;28;20049;-56
2021/12/09 06:44:39;;;;;;;3.38;2.60;;;;;;;-146.19;100.00;65364.44;10489855;28;20772;-56
2021/12/09 06:49:59;;;;;;;4.35;3.08;;;;;;;-146.19;100.00;65364.44;10484766;28;20056;-56
2021/12/09 06:55:19;;;;;;;6.82;3.50;;;;;;;-146.19;100.00;65364.44;10490936;28;20089;-55
2021/12/09 07:00:46;;;;;;;8.25;3.83;;;;;;;-146.19;100.00;65364.44;10492204;28;20055;-56
2021/12/09 07:06:08;;;;;;;8.05;3.78;;;;;;;-146.19;100.00;65364.44;10492055;28;20052;-56
2021/12/09 07:11:29;;;;;;;10.52;3.72;;;;;;;-146.19;100.00;65364.44;10488571;28;20632;-55
2021/12/09 07:16:49;;;;;;;7.97;3.70;;;;;;;-146.19;100.00;65364.44;10460666;28;20636;-56
2021/12/09 07:22:09;;;;;;;8.55;3.70;;;;;;;-146.19;100.00;65364.44;10487188;28;20045;-56
2021/12/09 07:27:28;;;;;;;6.88;3.70;;;;;;;-146.19;100.00;65364.44;10471649;28;20056;-56
2021/12/09 07:32:48;;;;;;;6.47;3.67;;;;;;;-146.19;100.00;65364.44;10466817;28;20098;-56
2021/12/09 07:38:08;;;;;;;7.88;3.60;;;;;;;-146.19;100.00;65364.44;10468027;28;20051;-56
2021/12/09 07:43:28;;;;;;;7.78;3.88;;;;;;;-146.19;100.00;65364.44;10479521;28;20044;-56
2021/12/09 07:48:48;;;;;;;7.45;3.50;;;;;;;-146.19;100.00;65364.44;10465932;28;20045;-56
2021/12/09 07:54:07;;;;;;;6.32;3.72;;;;;;;-146.19;100.00;65364.44;10478394;28;20055;-56
2021/12/09 07:59:28;;;;;;;5.95;3.78;;;;;;;-146.19;100.00;65364.44;10464447;28;20052;-56
2021/12/09 08:04:47;;;;;;;6.65;3.53;;;;;;;-146.19;100.00;65364.44;10468824;28;20053;-56
2021/12/09 08:10:09;;;;;;;6.57;3.65;;;;;;;-146.19;100.00;65364.44;10475456;28;20527;-56
2021/12/09 08:15:33;;;;;;;5.95;3.58;;;;;;;-146.19;100.00;65364.44;10464765;28;20079;-56
2021/12/09 08:20:57;;;;;;;6.78;3.58;;;;;;;-146.19;100.00;65364.44;10465437;28;20041;-56
2021/12/09 08:26:17;;;;;;;6.07;3.60;;;;;;;-146.19;100.00;65364.44;10466909;28;20044;-56
2021/12/09 08:31:36;;;;;;;7.28;3.50;;;;;;;-146.19;100.00;65364.44;10478578;28;20569;-56
2021/12/09 08:36:57;;;;;;;4.85;3.65;;;;;;;-146.19;100.00;65364.44;10463880;28;20048;-56
2021/12/09 08:42:17;;;;;;;7.28;4.03;;;;;;;-146.19;100.00;65364.44;10463545;28;20055;-56
2021/12/09 08:47:38;;;;;;;5.57;3.20;;;;;;;-146.19;100.00;65364.44;10463486;28;20049;-56
2021/12/09 08:52:58;;;;;;;5.65;3.60;;;;;;;-146.19;100.00;65364.44;10462908;28;20068;-56
2021/12/09 08:58:17;;;;;;;6.15;3.45;;;;;;;-146.19;100.00;65364.44;10463165;28;20091;-56
2021/12/09 09:03:37;;;;;;;5.35;3.42;;;;;;;-146.19;100.00;65364.44;10475711;28;20498;-56
2021/12/09 09:08:58;;;;;;;6.35;3.20;;;;;;;-146.19;100.00;65364.44;10464153;28;20524;-56
2021/12/09 09:14:17;;;;;;;4.97;3.28;;;;;;;-146.19;100.00;65364.44;10462868;28;20048;-56
2021/12/09 09:19:37;;;;;;;4.97;3.20;;;;;;;-146.19;100.00;65364.44;10462257;28;20055;-55
2021/12/09 09:24:56;;;;;;;4.55;3.28;;;;;;;-146.19;100.00;65364.44;10463247;28;20499;-55
2021/12/09 09:30:18;;;;;;;5.72;3.40;;;;;;;-146.19;100.00;65364.44;10476029;28;20488;-55
2021/12/09 09:35:40;;;;;;;5.68;3.40;;;;;;;19.49;45.08;95461.53;10462002;28;20080;-56
2021/12/09 09:41:08;;;;;;;4.60;3.33;;;;;;;19.35;44.53;95529.56;10480558;28;20056;-56
2021/12/09 09:46:29;;;;;;;5.32;3.72;;;;;;;19.35;44.50;95528.78;10478003;28;20114;-56
2021/12/09 09:51:49;;;;;;;4.95;3.00;;;;;;;19.32;44.49;95554.56;10477669;28;20045;-56
2021/12/09 09:57:09;;;;;;;4.35;3.15;;;;;;;19.32;44.47;95540.28;10455351;28;20049;-56
2021/12/09 10:02:31;;;;;;;6.38;3.05;;;;;;;19.30;44.56;95524.41;10447888;28;20132;-56
2021/12/09 10:07:51;;;;;;;5.15;3.17;;;;;;;19.30;44.40;95537.13;10447169;28;20075;-56
2021/12/09 10:13:13;;;;;;;4.10;2.85;;;;;;;-146.19;100.00;65364.44;10455542;28;20060;-56
2021/12/09 10:18:45;;;;;;;4.15;2.92;;;;;;;-146.19;100.00;65364.44;10456037;28;20045;-56
2021/12/09 10:24:06;;;;;;;4.22;2.80;;;;;;;-146.19;100.00;65364.44;10455260;28;20057;-56
2021/12/09 10:29:31;;;;;;;4.28;3.33;;;;;;;-146.19;100.00;65364.44;10455335;28;20049;-56
2021/12/09 10:34:51;;;;;;;4.45;3.00;;;;;;;-146.19;100.00;65364.44;10468592;28;20039;-56
2021/12/09 10:40:12;;;;;;;4.15;3.15;;;;;;;-146.19;100.00;65364.44;10468421;28;20048;-56
2021/12/09 10:45:37;;;;;;;4.53;3.00;;;;;;;-146.19;100.00;65364.44;10454934;28;20102;-56
2021/12/09 10:56:30;;;;;;;4.32;3.03;;;;;;;-146.19;100.00;65364.44;10454586;28;20055;-56
2021/12/09 11:02:07;;;;;;;3.65;2.78;;;;;;;-146.19;100.00;65364.44;10454277;28;20048;-56
2021/12/09 11:07:31;;;;;;;3.38;2.85;;;;;;;-146.19;100.00;65364.44;10453833;28;20119;-55
2021/12/09 11:12:56;;;;;;;3.75;3.08;;;;;;;-146.19;100.00;65364.44;10457143;28;20049;-56
2021/12/09 11:18:31;;;;;;;3.78;2.92;;;;;;;-146.19;100.00;65364.44;10467067;28;20500;-56
2021/12/09 11:23:57;;;;;;;4.38;2.80;;;;;;;-146.19;100.00;65364.44;10459544;28;20071;-56
2021/12/09 11:29:36;;;;;;;3.65;2.90;;;;;;;-146.19;100.00;65364.44;10452958;28;20057;-56
2021/12/09 11:35:01;;;;;;;3.40;3.10;;;;;;;-146.19;100.00;65364.44;10452612;28;20037;-57
2021/12/09 11:40:50;;;;;;;4.50;2.83;;;;;;;-146.19;100.00;65364.44;10452580;28;20622;-56
2021/12/09 11:46:10;;;;;;;3.58;2.78;;;;;;;-146.19;100.00;65364.44;10451917;28;20043;-56
2021/12/09 11:51:30;;;;;;;3.58;2.92;;;;;;;-146.19;100.00;65364.44;10465477;28;20045;-56
2021/12/09 12:13:59;;;;;;;3.97;3.27;;;;;;;-146.19;100.00;65364.44;10451204;28;20063;-56
2021/12/09 12:19:50;;;;;;;3.30;2.65;;;;;;;-146.19;100.00;65364.44;10450251;28;20045;-57
2021/12/09 12:32:10;;;;;;;3.05;2.75;;;;;;;-146.19;100.00;65364.44;10441259;28;20132;-56
2021/12/09 12:37:20;;;;;;;3.73;2.90;;;;;;;-146.19;100.00;65364.44;10450130;28;20052;-56
2021/12/09 12:42:47;;;;;;;3.40;2.75;;;;;;;-146.19;100.00;65364.44;10449664;28;20057;-56
2021/12/09 12:54:24;;;;;;;3.05;2.75;;;;;;;-146.19;100.00;65364.44;10440724;28;20053;-56
2021/12/09 13:00:10;;;;;;;3.75;3.00;;;;;;;-146.19;100.00;65364.44;10449604;28;20051;-56
2021/12/09 13:06:07;;;;;;;3.42;2.85;;;;;;;-146.19;100.00;65364.44;10448332;28;20057;-56
2021/12/09 13:12:06;;;;;;;3.20;2.78;;;;;;;-146.19;100.00;65364.44;10448888;28;20484;-56
2021/12/09 13:17:42;;;;;;;4.07;3.00;;;;;;;-146.19;100.00;65364.44;10439797;28;20048;-56
2021/12/09 13:23:23;;;;;;;3.55;3.05;;;;;;;-146.19;100.00;65364.44;10447859;28;20057;-56
2021/12/09 13:29:22;;;;;;;3.33;3.00;;;;;;;-146.19;100.00;65364.44;10448229;28;20126;-56
2021/12/09 13:35:01;;;;;;;2.95;2.67;;;;;;;-146.19;100.00;65364.44;10448340;28;20127;-56
2021/12/09 13:40:28;;;;;;;3.00;2.75;;;;;;;-146.19;100.00;65364.44;10448078;28;20091;-56
2021/12/09 13:46:11;;;;;;;4.35;2.70;;;;;;;-146.19;100.00;65364.44;10460748;28;20037;-56
2021/12/09 13:51:57;;;;;;;3.33;3.00;;;;;;;-146.19;100.00;65364.44;10448029;28;20057;-56
2021/12/09 13:57:11;;;;;;;3.60;3.20;;;;;;;-146.19;100.00;65364.44;10460822;28;20049;-56
2021/12/09 14:02:31;;;;;;;3.35;3.05;;;;;;;19.30;44.40;95537.13;10447153;28;20083;-56
2021/12/09 14:07:58;;;;;;;2.90;2.65;;;;;;;18.49;43.86;95553.56;10447545;28;20603;-56
2021/12/09 14:13:21;;;;;;;4.63;3.42;;;;;;;18.72;43.87;95557.41;10447374;28;20060;-56
2021/12/09 14:24:12;;;;;;;3.15;2.83;;;;;;;18.72;43.87;95562.78;10454060;28;20049;-56
2021/12/09 14:29:33;;;;;;;3.55;3.08;;;;;;;18.74;43.84;95560.53;10446415;28;20049;-56
2021/12/09 14:34:58;;;;;;;3.67;2.72;;;;;;;18.74;43.85;95565.94;10446195;28;20063;-56
2021/12/09 14:40:32;;;;;;;3.22;2.90;;;;;;;18.76;43.85;95579.06;10445534;28;20045;-56
2021/12/09 14:45:53;;;;;;;3.70;3.30;;;;;;;18.77;43.80;95565.22;10471599;28;20048;-56
2021/12/09 14:51:30;;;;;;;3.35;3.05;;;;;;;18.81;44.04;95586.16;10477929;28;20049;-56
2021/12/09 14:56:54;;;;;;;3.22;2.92;;;;;;;18.85;43.89;95584.31;10507701;28;20511;-56
2021/12/09 15:02:24;;;;;;;3.20;2.90;;;;;;;18.88;44.06;95597.13;10482105;28;20674;-55
2021/12/09 15:07:51;;;;;;;5.32;3.03;;;;;;;18.92;44.06;95592.59;10496824;28;20529;-56
2021/12/09 15:13:13;;;;;;;3.38;3.08;;;;;;;18.94;44.17;95593.03;10497004;28;20056;-55
2021/12/09 15:18:38;;;;;;;3.38;3.08;;;;;;;18.96;44.13;95599.63;10496194;28;20064;-56
2021/12/09 15:24:11;;;;;;;4.25;3.40;;;;;;;19.00;44.05;95605.13;10503545;28;20055;-57
2021/12/09 15:29:33;;;;;;;3.63;3.15;;;;;;;19.02;44.16;95602.84;10496133;28;20056;-57
2021/12/09 15:34:52;;;;;;;3.67;3.10;;;;;;;19.05;44.15;95602.16;10496023;28;20052;-57
2021/12/09 15:40:13;;;;;;;3.60;3.30;;;;;;;-146.19;nan;65364.44;10494795;28;20053;-57
2021/12/09 15:45:32;;;;;;;4.20;3.20;;;;;;;19.13;44.16;95590.41;10494892;28;20066;-57
2021/12/09 15:51:19;;;;;;;5.20;3.40;;;;;;;-146.19;nan;65364.44;10457823;28;20527;-56
2021/12/09 15:56:46;;;;;;;4.97;3.25;;;;;;;19.13;44.16;95590.41;10488247;28;20055;-56
2021/12/09 16:02:09;;;;;;;3.72;3.05;;;;;;;19.23;44.11;95570.19;10492264;28;20118;-56
2021/12/09 16:07:29;;;;;;;3.78;3.15;;;;;;;-146.19;100.00;65364.44;10491031;28;20052;-56
2021/12/09 16:12:48;;;;;;;4.35;3.63;;;;;;;-146.19;100.00;65364.44;10492439;28;20118;-55
2021/12/09 16:18:09;;;;;;;4.15;3.75;;;;;;;-146.19;100.00;65364.44;10491596;28;20067;-56
2021/12/09 16:23:29;;;;;;;3.97;3.38;;;;;;;-146.19;100.00;65364.44;10499615;28;20059;-56
2021/12/09 16:28:49;;;;;;;4.30;3.25;;;;;;;-146.19;100.00;65364.44;10505054;28;20568;-56
2021/12/09 16:34:08;;;;;;;4.50;3.30;;;;;;;-146.19;100.00;65364.44;10490411;28;20056;-56
2021/12/09 16:39:27;;;;;;;3.97;3.58;;;;;;;-146.19;100.00;65364.44;10491513;28;20551;-56
2021/12/09 16:44:47;;;;;;;4.40;3.40;;;;;;;-146.19;100.00;65364.44;10471417;28;20086;-57
2021/12/09 16:50:08;;;;;;;4.30;3.75;;;;;;;19.73;43.91;95592.09;10468959;28;20033;-57
2021/12/09 16:55:30;;;;;;;4.55;3.50;;;;;;;19.78;43.63;95591.84;10500603;28;20040;-55
2021/12/09 17:00:49;;;;;;;4.22;3.42;;;;;;;19.85;43.73;95594.66;10461670;28;20045;-55
2021/12/09 17:06:10;;;;;;;4.93;4.40;;;;;;;19.92;43.27;95594.81;10452008;28;20117;-56
2021/12/09 17:11:32;;;;;;;5.15;4.53;;;;;;;-146.19;100.00;65364.44;10478079;28;20094;-54
2021/12/09 17:16:53;;;;;;;10.75;5.45;;;;;;;-146.19;100.00;65364.44;10475591;28;20046;-55
2021/12/09 17:22:13;;;;;;;9.45;5.90;;;;;;;19.92;43.27;95594.81;10484670;28;20060;-55
2021/12/09 17:27:33;;;;;;;8.13;5.35;;;;;;;19.92;43.27;95594.81;10458842;28;20364;-56
2021/12/09 17:32:57;;;;;;;9.15;5.30;;;;;;;-146.19;100.00;65364.44;10472241;28;20056;-59
2021/12/09 17:38:16;;;;;;;8.02;5.22;;;;;;;-146.19;100.00;65364.44;10483218;28;20055;-59
2021/12/09 17:43:38;;;;;;;8.70;5.03;;;;;;;-146.19;100.00;65364.44;10463669;28;20095;-55
2021/12/09 17:48:57;;;;;;;8.05;4.82;;;;;;;-146.19;100.00;65364.44;10498021;28;20041;-56
2021/12/09 17:54:17;;;;;;;7.18;5.20;;;;;;;-146.19;100.00;65364.44;10475359;28;20048;-55
2021/12/09 17:59:37;;;;;;;5.47;4.38;;;;;;;-146.19;100.00;65364.44;10469018;28;20045;-53
2021/12/09 18:04:57;;;;;;;7.18;5.25;;;;;;;-146.19;100.00;65364.44;10456679;28;20714;-50
2021/12/09 18:10:17;;;;;;;5.55;4.82;;;;;;;-146.19;100.00;65364.44;10468363;28;20028;-54
2021/12/09 18:15:39;;;;;;;8.13;4.80;;;;;;;-146.19;100.00;65364.44;10457409;28;20568;-52
2021/12/09 18:20:59;;;;;;;5.93;5.15;;;;;;;-146.19;100.00;65364.44;10468444;28;20044;-53
2021/12/09 18:26:19;;;;;;;4.78;4.28;;;;;;;-146.19;100.00;65364.44;10457659;28;20056;-55
2021/12/09 18:31:39;;;;;;;5.82;4.47;;;;;;;-146.19;100.00;65364.44;10474698;28;20067;-55
2021/12/09 18:37:00;;;;;;;5.90;4.63;;;;;;;-146.19;100.00;65364.44;10465902;28;20048;-55
2021/12/09 18:42:19;;;;;;;6.45;4.80;;;;;;;-146.19;100.00;65364.44;10468206;28;20060;-57
2021/12/09 18:47:39;;;;;;;5.75;4.75;;;;;;;-146.19;100.00;65364.44;10468079;28;20052;-57
2021/12/09 18:53:00;;;;;;;5.25;4.28;;;;;;;-146.19;100.00;65364.44;10478992;28;20083;-55
2021/12/09 18:58:20;;;;;;;5.20;4.57;;;;;;;-146.19;100.00;65364.44;10455595;28;20052;-56
2021/12/09 19:03:40;;;;;;;6.65;4.70;;;;;;;-146.19;100.00;65364.44;10452701;28;20060;-55
2021/12/09 19:09:00;;;;;;;7.88;4.13;;;;;;;-146.19;100.00;65364.44;10455820;28;20037;-57
2021/12/09 19:14:21;;;;;;;7.70;4.40;;;;;;;-146.19;100.00;65364.44;10457505;28;20072;-57
2021/12/09 19:19:41;;;;;;;4.53;4.10;;;;;;;-146.19;100.00;65364.44;10471805;28;20416;-55
2021/12/09 19:25:01;;;;;;;5.53;4.50;;;;;;;-146.19;100.00;65364.44;10488865;28;20723;-55
2021/12/09 19:30:25;;;;;;;7.25;4.35;;;;;;;-146.19;100.00;65364.44;10480187;28;20060;-56
2021/12/09 19:35:46;;;;;;;4.50;4.10;;;;;;;-146.19;100.00;65364.44;10502089;28;20045;-53
2021/12/09 19:41:07;;;;;;;6.10;4.38;;;;;;;-146.19;100.00;65364.44;10474667;28;20044;-55
2021/12/09 19:46:26;;;;;;;5.15;4.53;;;;;;;-146.19;100.00;65364.44;10461033;28;20045;-59
2021/12/09 19:51:47;;;;;;;6.80;4.45;;;;;;;-146.19;100.00;65364.44;10489234;28;20056;-58
2021/12/09 19:57:06;;;;;;;7.05;4.25;;;;;;;-146.19;100.00;65364.44;10473065;28;20037;-56
2021/12/09 20:02:26;;;;;;;11.02;5.07;;;;;;;-146.19;100.00;65364.44;10467410;28;20037;-57
2021/12/09 20:07:46;;;;;;;8.13;4.53;;;;;;;-146.19;100.00;65364.44;10455703;28;20044;-56
2021/12/09 20:13:06;;;;;;;6.05;4.60;;;;;;;-146.19;100.00;65364.44;10471549;28;20085;-58
2021/12/09 20:18:25;;;;;;;8.65;4.57;;;;;;;-146.19;100.00;65364.44;10467324;28;20044;-55
2021/12/09 20:23:45;;;;;;;6.20;4.80;;;;;;;-146.19;100.00;65364.44;10477388;28;20068;-56
2021/12/09 20:29:08;;;;;;;8.00;4.90;;;;;;;-146.19;100.00;65364.44;10481857;28;20029;-55
2021/12/09 20:34:28;;;;;;;7.28;4.57;;;;;;;-146.19;100.00;65364.44;10457526;28;20428;-56
2021/12/09 20:39:49;;;;;;;5.65;4.05;;;;;;;-146.19;100.00;65364.44;10456871;28;20559;-56
2021/12/09 20:45:11;;;;;;;5.30;4.80;;;;;;;-146.19;100.00;65364.44;10457924;28;20083;-56
2021/12/09 20:50:33;;;;;;;7.18;4.85;;;;;;;-146.19;100.00;65364.44;10455287;28;20083;-57
2021/12/09 20:55:53;;;;;;;5.15;4.30;;;;;;;-146.19;100.00;65364.44;10452767;28;20041;-56
2021/12/09 21:01:13;;;;;;;5.30;4.22;;;;;;;-146.19;100.00;65364.44;10456646;28;20056;-56
2021/12/09 21:06:33;;;;;;;6.20;4.32;;;;;;;-146.19;100.00;65364.44;10457320;28;20420;-55
2021/12/09 21:11:52;;;;;;;7.60;4.30;;;;;;;-146.19;100.00;65364.44;10457746;28;20647;-56
2021/12/09 21:17:12;;;;;;;7.63;4.30;;;;;;;-146.19;100.00;65364.44;10460476;28;20057;-56
2021/12/09 21:22:32;;;;;;;4.72;4.22;;;;;;;-146.19;100.00;65364.44;10462213;28;20060;-55
2021/12/09 21:27:52;;;;;;;8.98;4.90;;;;;;;-146.19;100.00;65364.44;10474397;28;20044;-56
2021/12/09 21:33:11;;;;;;;8.90;4.88;;;;;;;-146.19;100.00;65364.44;10473408;28;20045;-56
2021/12/09 21:38:31;;;;;;;9.02;5.30;;;;;;;-146.19;100.00;65364.44;10458983;28;20052;-56
2021/12/09 21:43:51;;;;;;;7.07;4.47;;;;;;;-146.19;100.00;65364.44;10473954;28;20245;-56
2021/12/09 21:49:11;;;;;;;11.23;4.60;;;;;;;-146.19;100.00;65364.44;10473401;28;20029;-56
2021/12/09 21:54:31;;;;;;;8.00;4.30;;;;;;;-146.19;100.00;65364.44;10475487;28;20555;-56
2021/12/09 21:59:50;;;;;;;7.50;4.70;;;;;;;-146.19;100.00;65364.44;10475628;28;20041;-56
2021/12/09 22:05:10;;;;;;;10.60;4.50;;;;;;;-146.19;100.00;65364.44;10494693;28;20033;-56
2021/12/09 22:10:30;;;;;;;5.63;3.80;;;;;;;-146.19;100.00;65364.44;10492822;28;20068;-56
2021/12/09 22:15:52;;;;;;;6.65;3.80;;;;;;;-146.19;100.00;65364.44;10488992;28;20480;-56
2021/12/09 22:21:12;;;;;;;5.63;4.05;;;;;;;-146.19;100.00;65364.44;10505065;28;20046;-56
2021/12/09 22:26:33;;;;;;;4.55;3.75;;;;;;;-146.19;100.00;65364.44;10489936;28;20053;-56
2021/12/09 22:31:53;;;;;;;4.78;3.80;;;;;;;-146.19;100.00;65364.44;10481520;28;20060;-56
2021/12/09 22:37:13;;;;;;;4.68;3.80;;;;;;;-146.19;100.00;65364.44;10492336;28;20044;-56
2021/12/09 22:42:33;;;;;;;4.72;3.72;;;;;;;-146.19;100.00;65364.44;10487093;28;20056;-56
2021/12/09 22:47:53;;;;;;;5.57;3.47;;;;;;;-146.19;100.00;65364.44;10491165;28;20712;-56
2021/12/09 22:53:12;;;;;;;7.15;3.72;;;;;;;-146.19;100.00;65364.44;10490957;28;20542;-57
2021/12/09 22:58:35;;;;;;;4.57;3.60;;;;;;;-146.19;100.00;65364.44;10477685;28;20047;-56
2021/12/09 23:04:01;;;;;;;5.60;3.20;;;;;;;-146.19;100.00;65364.44;10492556;28;20052;-56
2021/12/09 23:09:22;;;;;;;4.47;3.45;;;;;;;-146.19;100.00;65364.44;10488322;28;20036;-56
2021/12/09 23:14:50;;;;;;;4.15;3.35;;;;;;;-146.19;100.00;65364.44;10468903;28;20083;-56
2021/12/09 23:20:10;;;;;;;5.10;3.20;;;;;;;-146.19;100.00;65364.44;10467989;28;20082;-56
2021/12/09 23:25:30;;;;;;;3.25;2.95;;;;;;;-146.19;100.00;65364.44;10467672;28;20102;-56
2021/12/09 23:30:52;;;;;;;4.72;3.17;;;;;;;-146.19;100.00;65364.44;10469458;28;20061;-56
2021/12/09 23:36:13;;;;;;;4.47;3.20;;;;;;;-146.19;100.00;65364.44;10487059;28;20044;-56
2021/12/09 23:41:37;;;;;;;3.53;2.97;;;;;;;-146.19;100.00;65364.44;10466646;28;20673;-56
2021/12/09 23:46:56;;;;;;;3.20;2.88;;;;;;;-146.19;100.00;65364.44;10468027;28;20040;-56
2021/12/09 23:52:16;;;;;;;3.53;3.15;;;;;;;-146.19;100.00;65364.44;10465729;28;20412;-56
2021/12/09 23:57:36;;;;;;;4.40;3.15;;;;;;;-146.19;100.00;65364.44;10446279;28;20416;-56
